Time;durP1;ratioP1;P1;durP2;ratioP2;P2;SDS_P1;SDS_P2;PMS_P1;PMS_P2;Temp;Humidity;BMP_temperature;BMP_pressure;BME280_temperature;BME280_humidity;BME280_pressure;Samples;Min_cycle;Max_cycle;Signal;HPM_P1;HPM_P2
2021/03/20 00:01:12;;;;;;;9.85;4.80;;;;;;;3.67;67.95;102942.56;5014302;28;20147;-76
2021/03/20 00:03:39;;;;;;;9.00;5.03;;;;;;;3.60;67.74;102948.81;5010269;28;20074;-76
2021/03/20 00:06:06;;;;;;;7.75;5.07;;;;;;;3.66;68.05;102951.22;4996559;28;20049;-75
2021/03/20 00:08:42;;;;;;;6.75;4.72;;;;;;;3.60;67.29;102941.03;5000675;28;20729;-76
2021/03/20 00:11:08;;;;;;;8.13;4.80;;;;;;;3.72;67.62;102956.22;4996951;28;20046;-76
2021/03/20 00:13:34;;;;;;;10.30;4.95;;;;;;;3.69;67.56;102956.31;5006915;28;20160;-76
2021/03/20 00:16:00;;;;;;;8.65;5.28;;;;;;;3.70;67.56;102958.00;4991102;28;20155;-76
2021/03/20 00:18:27;;;;;;;9.95;5.70;;;;;;;3.65;67.65;102950.38;5000475;28;20141;-76
2021/03/20 00:20:55;;;;;;;7.15;4.65;;;;;;;3.64;67.82;102953.00;4995997;28;20042;-76
2021/03/20 00:23:21;;;;;;;7.35;5.20;;;;;;;3.67;67.32;102961.56;5002364;28;20599;-76
2021/03/20 00:25:48;;;;;;;8.43;5.13;;;;;;;3.62;67.51;102966.03;5005186;28;20221;-76
2021/03/20 00:28:21;;;;;;;8.70;5.25;;;;;;;3.64;67.77;102961.66;5013314;28;20066;-76
2021/03/20 00:30:55;;;;;;;10.20;5.85;;;;;;;3.61;67.50;102963.47;4995922;28;20117;-76
2021/03/20 00:33:21;;;;;;;6.68;4.80;;;;;;;3.65;67.46;102965.13;4990863;28;20049;-76
2021/03/20 00:35:48;;;;;;;9.50;5.47;;;;;;;3.61;67.56;102958.28;4990303;28;20050;-76
2021/03/20 00:38:15;;;;;;;8.82;5.22;;;;;;;3.66;67.44;102969.38;4987484;28;20050;-77
2021/03/20 00:40:41;;;;;;;8.25;5.60;;;;;;;3.64;67.53;102966.84;4986227;28;20116;-77
2021/03/20 00:43:08;;;;;;;12.25;5.35;;;;;;;3.70;67.30;102982.22;4982429;28;20143;-76
2021/03/20 00:45:34;;;;;;;7.38;5.45;;;;;;;3.71;67.27;102976.13;4982029;28;20050;-76
2021/03/20 00:48:14;;;;;;;8.95;6.35;;;;;;;3.70;66.95;102977.00;4987447;28;20133;-75
2021/03/20 00:50:40;;;;;;;8.88;6.05;;;;;;;3.74;66.84;102983.84;4983560;28;20144;-75
2021/03/20 00:53:06;;;;;;;10.55;5.25;;;;;;;3.74;67.34;102980.38;4990727;28;20474;-74
2021/03/20 00:55:32;;;;;;;9.75;5.50;;;;;;;3.71;66.75;102977.88;4983885;28;20053;-74
2021/03/20 00:57:58;;;;;;;8.15;5.47;;;;;;;3.70;67.10;102971.81;4988217;28;20062;-75
2021/03/20 01:00:27;;;;;;;9.30;5.28;;;;;;;3.71;66.60;102972.69;4975410;28;20417;-74
2021/03/20 01:02:53;;;;;;;10.45;6.10;;;;;;;3.63;66.72;102969.50;4989311;28;20057;-74
2021/03/20 01:05:20;;;;;;;8.82;4.90;;;;;;;3.63;66.51;102972.94;4982788;28;20932;-75
2021/03/20 01:07:46;;;;;;;8.32;5.25;;;;;;;3.60;66.52;102978.22;4987079;28;20086;-75
2021/03/20 01:10:21;;;;;;;9.23;5.35;;;;;;;3.53;66.15;102976.72;4989309;28;20054;-77
2021/03/20 01:12:47;;;;;;;8.85;5.18;;;;;;;3.53;66.57;102990.53;4984765;28;20104;-77
2021/03/20 01:15:17;;;;;;;6.95;4.82;;;;;;;3.48;66.07;102987.22;4987731;28;20069;-77
2021/03/20 01:17:44;;;;;;;6.63;5.00;;;;;;;3.44;66.12;102989.97;4982675;28;20159;-77
2021/03/20 01:20:11;;;;;;;8.18;4.85;;;;;;;3.42;65.98;102989.19;4987532;28;20057;-78
2021/03/20 01:22:37;;;;;;;8.85;5.30;;;;;;;3.39;65.84;102991.84;4984487;28;20141;-77
2021/03/20 01:25:06;;;;;;;6.40;4.47;;;;;;;3.38;65.81;102996.19;4983222;28;20101;-77
2021/03/20 01:27:32;;;;;;;6.95;4.70;;;;;;;3.27;65.97;102995.66;4972588;28;20156;-78
2021/03/20 01:29:58;;;;;;;6.55;4.70;;;;;;;3.23;66.05;102994.91;4988438;28;20571;-77
2021/03/20 01:32:25;;;;;;;8.00;4.50;;;;;;;3.24;66.00;103004.41;4991429;28;20057;-78
2021/03/20 01:34:51;;;;;;;9.23;4.75;;;;;;;3.21;66.14;103008.81;4981215;28;20054;-78
2021/03/20 01:37:18;;;;;;;7.40;4.50;;;;;;;3.17;65.82;103006.31;4989179;28;20280;-77
2021/03/20 01:39:48;;;;;;;8.18;4.53;;;;;;;3.13;65.67;103006.44;4985149;28;20127;-77
2021/03/20 01:42:14;;;;;;;6.82;4.53;;;;;;;3.10;65.56;103007.38;4987035;28;20469;-76
2021/03/20 01:44:40;;;;;;;9.50;4.88;;;;;;;3.09;65.23;103015.22;4982445;28;20093;-76
2021/03/20 01:47:14;;;;;;;6.28;3.90;;;;;;;3.01;65.16;102997.28;4991300;28;20069;-76
2021/03/20 01:49:46;;;;;;;7.32;4.25;;;;;;;3.05;64.88;103011.84;4981219;28;20109;-76
2021/03/20 01:52:12;;;;;;;7.30;4.57;;;;;;;3.02;64.79;103013.66;4981212;28;20438;-75
2021/03/20 01:54:47;;;;;;;7.80;3.95;;;;;;;2.95;64.84;103010.41;4985215;28;20078;-75
2021/03/20 01:57:17;;;;;;;6.78;4.30;;;;;;;2.88;65.38;103009.75;4984137;28;20053;-75
2021/03/20 01:59:45;;;;;;;9.98;4.25;;;;;;;2.83;65.23;103009.00;4990166;28;21334;-76
2021/03/20 02:02:11;;;;;;;6.35;4.00;;;;;;;2.77;65.04;103010.03;4984462;28;20946;-76
2021/03/20 02:04:38;;;;;;;6.90;4.00;;;;;;;2.79;65.61;103015.19;5010213;28;20159;-76
2021/03/20 02:07:05;;;;;;;6.30;4.10;;;;;;;2.77;66.25;103009.19;4978048;28;20057;-75
2021/03/20 02:09:31;;;;;;;7.85;4.78;;;;;;;2.71;65.98;103004.19;4979726;28;20081;-75
2021/03/20 02:12:02;;;;;;;7.65;4.00;;;;;;;2.73;65.29;103000.66;4982330;28;20164;-76
2021/03/20 02:14:54;;;;;;;8.57;4.00;;;;;;;2.67;65.32;102997.38;4988266;28;20054;-75
2021/03/20 02:17:31;;;;;;;7.50;4.25;;;;;;;2.67;65.65;102995.63;4983430;28;20150;-76
2021/03/20 02:20:12;;;;;;;8.52;4.60;;;;;;;2.63;65.34;102986.25;4991800;28;20062;-75
2021/03/20 02:23:10;;;;;;;11.10;4.10;;;;;;;2.57;65.23;102986.41;4999596;28;20154;-76
2021/03/20 02:26:04;;;;;;;7.90;4.05;;;;;;;2.54;65.57;102987.31;4982225;28;20054;-75
2021/03/20 02:28:50;;;;;;;6.80;3.85;;;;;;;2.48;64.93;102984.91;4985779;28;20050;-75
2021/03/20 02:31:40;;;;;;;5.88;3.80;;;;;;;2.44;64.98;102987.63;4987630;28;20461;-75
2021/03/20 02:34:19;;;;;;;6.90;4.10;;;;;;;2.39;65.41;102982.53;4977320;28;20616;-74
2021/03/20 02:37:10;;;;;;;5.63;3.80;;;;;;;2.37;65.46;102985.19;4984732;28;20128;-75
2021/03/20 02:40:02;;;;;;;5.72;3.70;;;;;;;2.33;65.45;102986.19;4975350;28;20100;-75
2021/03/20 02:42:35;;;;;;;5.07;3.88;;;;;;;2.27;65.86;102988.91;4986388;28;20086;-75
2021/03/20 02:45:42;;;;;;;5.80;4.28;;;;;;;2.24;65.73;102995.91;4988262;28;20054;-74
2021/03/20 02:48:17;;;;;;;8.13;4.18;;;;;;;2.20;65.70;102989.97;4984796;28;20821;-74
2021/03/20 02:50:50;;;;;;;7.32;4.05;;;;;;;2.21;65.68;102994.22;4975745;28;20136;-75
2021/03/20 02:53:46;;;;;;;6.32;4.22;;;;;;;2.20;65.71;102992.56;4986052;28;20053;-75
2021/03/20 02:56:21;;;;;;;6.43;4.43;;;;;;;2.15;65.39;102999.56;4975349;28;20139;-74
2021/03/20 02:59:00;;;;;;;9.13;4.30;;;;;;;2.16;65.85;103003.88;4989195;28;20145;-75
2021/03/20 03:01:28;;;;;;;8.50;4.00;;;;;;;2.09;65.86;102992.81;5001533;28;20058;-75
2021/03/20 03:03:56;;;;;;;8.05;4.57;;;;;;;2.09;65.40;102999.72;4979892;28;20053;-75
2021/03/20 03:06:28;;;;;;;7.10;4.35;;;;;;;2.07;66.29;102999.75;4980860;28;20054;-75
2021/03/20 03:09:20;;;;;;;8.23;4.32;;;;;;;1.97;65.61;102996.53;4981443;28;20086;-75
2021/03/20 03:11:58;;;;;;;8.60;4.07;;;;;;;1.92;65.77;102989.78;4990255;28;20077;-75
2021/03/20 03:14:48;;;;;;;8.13;4.68;;;;;;;1.87;66.38;103002.84;4979426;28;20112;-75
2021/03/20 03:17:16;;;;;;;6.55;4.38;;;;;;;1.84;66.48;103002.91;4984095;28;20096;-75
2021/03/20 03:19:48;;;;;;;6.03;4.60;;;;;;;1.89;66.06;103002.81;4971315;28;20058;-75
2021/03/20 03:22:24;;;;;;;7.03;3.90;;;;;;;1.80;66.35;102993.50;4986197;28;20046;-75
2021/03/20 03:24:55;;;;;;;7.65;4.40;;;;;;;1.80;66.45;103001.28;4978511;28;20081;-75
2021/03/20 03:27:23;;;;;;;6.85;4.25;;;;;;;1.76;66.06;102992.75;4987325;28;20085;-75
2021/03/20 03:29:50;;;;;;;6.68;3.88;;;;;;;1.73;65.82;102984.22;4980232;28;20050;-76
2021/03/20 03:32:31;;;;;;;7.55;4.80;;;;;;;1.74;66.08;102991.06;4984186;28;20548;-76
2021/03/20 03:35:08;;;;;;;7.45;4.68;;;;;;;1.68;66.41;102989.47;4984047;28;20046;-75
2021/03/20 03:37:41;;;;;;;6.57;4.40;;;;;;;1.57;66.60;102992.31;4994068;28;20108;-74
2021/03/20 03:40:20;;;;;;;7.57;5.30;;;;;;;1.57;66.89;102988.88;4990071;28;20117;-76
2021/03/20 03:42:47;;;;;;;;;;;;;;;1.53;66.48;102992.41;4984506;28;20046;-75
2021/03/20 03:45:14;;;;;;;6.70;4.43;;;;;;;1.52;66.90;102988.13;4983581;28;20016;-75
2021/03/20 03:47:40;;;;;;;7.53;4.65;;;;;;;1.47;67.10;102988.25;4982926;28;20491;-75
2021/03/20 03:50:13;;;;;;;7.28;5.13;;;;;;;1.46;67.38;102994.28;5006844;28;20081;-75
2021/03/20 03:52:39;;;;;;;8.95;4.63;;;;;;;1.44;67.34;102984.88;4988317;28;20473;-74
2021/03/20 03:55:08;;;;;;;8.77;4.60;;;;;;;1.47;67.20;102993.41;4989585;28;20050;-75
2021/03/20 03:57:53;;;;;;;8.07;4.97;;;;;;;1.44;67.06;102992.63;4987935;28;20116;-74
2021/03/20 04:00:34;;;;;;;9.23;4.63;;;;;;;1.41;67.23;102990.09;4986166;28;20646;-75
2021/03/20 04:03:27;;;;;;;8.55;4.85;;;;;;;1.39;66.98;103000.47;4982317;28;20137;-74
2021/03/20 04:06:28;;;;;;;7.63;5.05;;;;;;;1.36;67.06;103003.13;5004696;28;20119;-74
2021/03/20 04:09:18;;;;;;;11.35;5.07;;;;;;;1.29;67.44;102998.97;4933005;28;20061;-76
2021/03/20 04:12:07;;;;;;;7.18;4.90;;;;;;;1.30;67.44;103004.13;4984241;28;20137;-78
2021/03/20 04:14:42;;;;;;;8.07;5.10;;;;;;;1.25;67.16;102997.34;4983817;28;20476;-75
2021/03/20 04:17:23;;;;;;;12.00;5.07;;;;;;;1.30;66.54;102998.09;4989906;28;20145;-74
2021/03/20 04:20:11;;;;;;;7.75;4.75;;;;;;;1.28;67.01;102997.28;4988535;28;20524;-74
2021/03/20 04:22:55;;;;;;;8.27;5.20;;;;;;;1.26;67.67;102992.13;4986699;28;20133;-75
2021/03/20 04:25:29;;;;;;;7.60;4.60;;;;;;;1.29;67.51;102999.81;4983646;28;20082;-74
2021/03/20 04:28:22;;;;;;;7.63;4.80;;;;;;;1.29;67.14;103006.72;4978432;28;20112;-74
2021/03/20 04:30:57;;;;;;;9.63;4.72;;;;;;;1.27;66.75;103011.09;4985740;28;20054;-74
2021/03/20 04:33:31;;;;;;;7.30;4.60;;;;;;;1.15;67.23;102989.78;4992272;28;20483;-74
2021/03/20 04:36:02;;;;;;;7.22;4.90;;;;;;;1.20;67.14;103010.38;4987481;28;20170;-74
2021/03/20 04:38:28;;;;;;;6.55;4.72;;;;;;;1.20;67.18;103010.38;4998591;28;20085;-75
2021/03/20 04:40:59;;;;;;;10.40;4.57;;;;;;;1.19;67.02;103000.91;4983080;28;20053;-74
2021/03/20 04:43:27;;;;;;;6.95;4.68;;;;;;;1.16;66.86;103012.16;4976432;28;20686;-75
2021/03/20 04:46:05;;;;;;;8.10;4.82;;;;;;;1.12;66.66;103007.94;4991975;28;20076;-75
2021/03/20 04:48:35;;;;;;;7.80;4.85;;;;;;;1.07;66.90;103017.50;4988092;28;20096;-75
2021/03/20 04:51:12;;;;;;;7.07;4.68;;;;;;;1.04;66.99;103020.19;4989407;28;20061;-74
2021/03/20 04:53:38;;;;;;;8.07;5.18;;;;;;;1.01;66.80;103019.38;4993715;28;20595;-75
2021/03/20 04:56:14;;;;;;;7.40;4.93;;;;;;;1.00;67.90;103021.13;4996947;28;20089;-74
2021/03/20 04:58:50;;;;;;;9.23;4.70;;;;;;;0.95;67.61;103020.34;4996302;28;20783;-75
2021/03/20 05:01:25;;;;;;;7.93;4.55;;;;;;;0.95;67.72;103023.78;4993284;28;20092;-74
2021/03/20 05:04:05;;;;;;;7.43;5.18;;;;;;;0.91;67.26;103016.13;5000242;28;20056;-75
2021/03/20 05:06:32;;;;;;;;;;;;;;;0.94;67.45;103023.81;4993255;28;20852;-74
2021/03/20 05:09:07;;;;;;;8.15;4.78;;;;;;;0.91;67.50;103019.56;4996522;28;19936;-76
2021/03/20 05:11:50;;;;;;;7.07;4.55;;;;;;;0.89;67.41;103016.16;4991807;28;20568;-74
2021/03/20 05:14:25;;;;;;;6.90;4.50;;;;;;;0.83;67.70;103018.00;5003208;28;20046;-75
2021/03/20 05:17:02;;;;;;;6.18;4.18;;;;;;;0.79;67.92;103019.81;4993006;28;20408;-76
2021/03/20 05:19:29;;;;;;;6.20;4.50;;;;;;;0.77;68.12;103021.56;4996091;28;20085;-74
2021/03/20 05:21:56;;;;;;;7.55;4.55;;;;;;;0.75;67.85;103018.16;4990603;28;20108;-77
2021/03/20 05:24:31;;;;;;;5.60;4.15;;;;;;;0.70;67.76;103009.63;4994375;28;20045;-75
2021/03/20 05:26:58;;;;;;;8.13;4.30;;;;;;;0.58;68.06;102997.78;4987717;28;20429;-74
2021/03/20 05:29:25;;;;;;;8.90;4.75;;;;;;;0.68;67.96;103013.97;4994702;28;20920;-74
2021/03/20 05:31:52;;;;;;;6.45;4.30;;;;;;;0.61;67.85;103018.41;4993171;28;20053;-77
2021/03/20 05:34:35;;;;;;;6.70;4.57;;;;;;;0.62;67.58;103019.25;4995419;28;20133;-77
2021/03/20 05:37:01;;;;;;;6.65;4.57;;;;;;;0.59;67.76;103022.75;4989275;28;20115;-77
2021/03/20 05:39:28;;;;;;;7.63;4.80;;;;;;;0.58;67.38;103018.47;4988087;28;20057;-75
2021/03/20 05:42:22;;;;;;;8.23;4.22;;;;;;;0.54;67.98;103027.16;4995159;28;20086;-76
2021/03/20 05:45:26;;;;;;;7.85;4.35;;;;;;;0.51;67.76;103027.19;4987955;28;20143;-75
2021/03/20 05:48:15;;;;;;;8.07;4.75;;;;;;;0.43;68.18;103022.16;4990231;28;20042;-77
2021/03/20 05:51:02;;;;;;;8.73;4.35;;;;;;;0.41;68.43;103023.91;4982988;28;20085;-77
2021/03/20 05:53:45;;;;;;;8.85;4.95;;;;;;;0.33;68.49;103026.66;4998629;28;20074;-77
2021/03/20 05:56:15;;;;;;;8.40;4.35;;;;;;;0.33;68.75;103018.91;4988524;28;20741;-77
2021/03/20 05:58:50;;;;;;;8.70;5.15;;;;;;;0.32;69.43;103027.50;4993395;28;20615;-77
2021/03/20 06:01:41;;;;;;;7.10;4.75;;;;;;;0.34;69.27;103028.34;4986904;28;20058;-77
2021/03/20 06:04:07;;;;;;;7.22;4.57;;;;;;;0.41;68.89;103039.41;4994352;28;20061;-77
2021/03/20 06:07:06;;;;;;;8.05;5.00;;;;;;;0.44;68.54;103038.53;4985475;28;20615;-77
2021/03/20 06:09:47;;;;;;;9.05;4.60;;;;;;;0.48;68.19;103043.59;4975534;28;20049;-76
2021/03/20 06:12:42;;;;;;;7.80;4.50;;;;;;;0.45;68.02;103027.28;4995937;28;20741;-77
2021/03/20 06:15:14;;;;;;;7.38;4.45;;;;;;;0.44;68.82;103036.78;5015787;28;20095;-77
2021/03/20 06:18:12;;;;;;;7.50;5.22;;;;;;;0.42;68.62;103032.53;4988895;28;20124;-77
2021/03/20 06:20:58;;;;;;;9.77;5.07;;;;;;;0.43;68.80;103035.06;4997724;28;20565;-77
2021/03/20 06:23:44;;;;;;;8.73;5.05;;;;;;;0.48;68.61;103038.44;4991938;28;20073;-77
2021/03/20 06:26:26;;;;;;;8.50;4.63;;;;;;;0.50;68.65;103041.84;5011765;28;20058;-75
2021/03/20 06:29:05;;;;;;;8.40;5.25;;;;;;;0.50;68.39;103049.59;4993847;28;20069;-75
2021/03/20 06:31:49;;;;;;;7.13;4.60;;;;;;;0.54;68.14;103042.63;4992740;28;20108;-75
2021/03/20 06:34:15;;;;;;;9.65;5.30;;;;;;;0.59;68.52;103046.84;4988338;28;20638;-75
2021/03/20 06:36:48;;;;;;;6.35;4.25;;;;;;;0.66;68.08;103046.75;4994819;28;20065;-75
2021/03/20 06:39:56;;;;;;;7.57;4.65;;;;;;;0.73;67.41;103056.09;4992078;28;20624;-75
2021/03/20 06:42:27;;;;;;;7.55;4.45;;;;;;;0.75;67.36;103056.91;4964868;28;20089;-75
2021/03/20 06:44:59;;;;;;;7.70;4.32;;;;;;;0.77;67.19;103060.31;4987069;28;20049;-75
2021/03/20 06:47:28;;;;;;;10.40;4.35;;;;;;;0.74;67.30;103061.19;4995728;28;20139;-75
2021/03/20 06:50:01;;;;;;;8.82;5.22;;;;;;;0.81;67.09;103064.53;4998755;28;20084;-75
2021/03/20 06:52:29;;;;;;;9.27;4.60;;;;;;;0.85;67.01;103063.59;4999006;28;20077;-75
2021/03/20 06:55:00;;;;;;;7.72;4.68;;;;;;;0.87;67.18;103061.00;4995191;28;20086;-75
2021/03/20 06:57:27;;;;;;;10.77;4.40;;;;;;;0.94;67.07;103068.59;4992168;28;20053;-75
2021/03/20 06:59:54;;;;;;;9.20;4.57;;;;;;;0.95;67.09;103069.44;4982191;28;20113;-76
2021/03/20 07:02:30;;;;;;;9.88;4.63;;;;;;;0.99;67.13;103068.50;4989757;28;20053;-75
2021/03/20 07:05:06;;;;;;;8.13;4.78;;;;;;;1.04;67.44;103078.75;4989558;28;20056;-75
2021/03/20 07:07:40;;;;;;;9.35;4.47;;;;;;;1.10;66.58;103076.06;5003754;28;20089;-76
2021/03/20 07:10:29;;;;;;;8.00;4.25;;;;;;;1.13;66.07;103076.00;4994637;28;20085;-76
2021/03/20 07:13:07;;;;;;;4.82;3.50;;;;;;;1.18;66.52;103076.78;4987542;28;20061;-75
2021/03/20 07:15:34;;;;;;;6.93;4.40;;;;;;;1.18;66.22;103077.63;4992707;28;20081;-76
2021/03/20 07:18:16;;;;;;;7.80;4.28;;;;;;;1.25;66.41;103085.25;4987386;28;20849;-76
2021/03/20 07:20:43;;;;;;;6.93;4.45;;;;;;;1.25;66.34;103087.84;4993415;28;20132;-75
2021/03/20 07:23:16;;;;;;;5.85;4.13;;;;;;;1.32;66.31;103100.63;4989643;28;21039;-76
2021/03/20 07:25:52;;;;;;;10.27;4.22;;;;;;;1.34;65.59;103106.59;4994133;28;20152;-75
2021/03/20 07:28:22;;;;;;;7.95;4.40;;;;;;;1.34;66.20;103098.00;5005875;28;20056;-75
2021/03/20 07:30:50;;;;;;;8.05;4.35;;;;;;;1.39;66.06;103109.09;4990969;28;20513;-76
2021/03/20 07:33:28;;;;;;;6.75;4.28;;;;;;;1.42;65.73;103106.44;4991178;28;20482;-75
2021/03/20 07:35:57;;;;;;;9.70;4.50;;;;;;;1.44;66.06;103106.44;4987373;28;20559;-76
2021/03/20 07:38:29;;;;;;;7.20;4.43;;;;;;;1.45;65.92;103109.00;4997792;28;20057;-75
2021/03/20 07:41:10;;;;;;;9.95;4.38;;;;;;;1.48;65.97;103095.97;4988910;28;20089;-76
2021/03/20 07:43:36;;;;;;;8.10;4.68;;;;;;;1.50;65.33;103106.31;4984717;28;20050;-76
2021/03/20 07:46:17;;;;;;;8.65;4.82;;;;;;;1.51;65.58;103098.50;4989574;28;20054;-76
2021/03/20 07:48:44;;;;;;;9.05;4.63;;;;;;;1.56;65.28;103109.59;4996265;28;20062;-76
2021/03/20 07:51:16;;;;;;;9.68;4.97;;;;;;;1.56;64.78;103095.81;4995331;28;20050;-76
2021/03/20 07:53:50;;;;;;;9.48;5.05;;;;;;;1.61;64.71;103086.25;4990031;28;20486;-76
2021/03/20 07:56:19;;;;;;;7.32;4.65;;;;;;;1.64;63.98;103082.72;4993192;28;20084;-76
2021/03/20 07:59:05;;;;;;;10.65;4.25;;;;;;;1.66;63.87;103086.13;5003794;28;20539;-76
2021/03/20 08:01:34;;;;;;;8.18;4.60;;;;;;;1.72;64.48;103081.66;4996272;28;20101;-76
2021/03/20 08:04:04;;;;;;;8.60;4.18;;;;;;;1.75;63.02;103079.03;4992409;28;20049;-76
2021/03/20 08:06:30;;;;;;;7.60;4.15;;;;;;;1.78;62.61;103083.25;4997704;28;20050;-76
2021/03/20 08:09:19;;;;;;;8.70;4.13;;;;;;;1.83;61.74;103085.78;4993564;28;20108;-76
2021/03/20 08:12:05;;;;;;;;;;;;;;;1.90;62.13;103089.91;5004470;28;20100;-76
2021/03/20 08:14:36;;;;;;;9.38;3.72;;;;;;;1.90;60.76;103082.13;4991488;28;20031;-76
2021/03/20 08:17:02;;;;;;;7.57;4.05;;;;;;;2.00;61.85;103088.84;4991374;28;20066;-76
2021/03/20 08:19:31;;;;;;;7.20;3.53;;;;;;;2.11;62.37;103085.97;4988311;28;20050;-76
2021/03/20 08:22:17;;;;;;;6.32;4.07;;;;;;;2.18;61.93;103084.97;4992620;28;20085;-76
2021/03/20 08:25:17;;;;;;;7.50;3.72;;;;;;;2.29;60.97;103090.72;4981269;28;20052;-76
2021/03/20 08:28:17;;;;;;;7.55;3.90;;;;;;;2.46;61.84;103090.31;5003056;28;20054;-76
2021/03/20 08:30:58;;;;;;;7.57;4.30;;;;;;;2.53;59.91;103084.09;5001584;28;20161;-76
2021/03/20 08:33:46;;;;;;;6.75;4.03;;;;;;;2.71;59.95;103092.28;5008278;28;20444;-76
2021/03/20 08:36:50;;;;;;;7.50;4.13;;;;;;;2.93;60.60;103095.16;4989430;28;20056;-76
2021/03/20 08:39:49;;;;;;;7.78;4.03;;;;;;;3.09;61.26;103077.44;4992888;28;20112;-76
2021/03/20 08:42:21;;;;;;;6.55;3.85;;;;;;;3.27;60.49;103091.63;4991420;28;20149;-76
2021/03/20 08:45:09;;;;;;;6.63;4.40;;;;;;;3.40;60.03;103086.97;4993833;28;20105;-76
2021/03/20 08:47:58;;;;;;;7.80;4.03;;;;;;;3.46;57.64;103094.56;4990419;28;20548;-75
2021/03/20 08:50:30;;;;;;;;;;;;;;;3.60;58.20;103083.78;4997519;28;20302;-74
2021/03/20 08:53:12;;;;;;;6.25;3.75;;;;;;;3.78;59.28;103091.00;4988496;28;19945;-75
2021/03/20 08:55:58;;;;;;;9.75;4.10;;;;;;;3.75;56.46;103086.75;4995690;28;20477;-75
2021/03/20 08:58:35;;;;;;;9.32;4.65;;;;;;;3.70;55.50;103086.03;4986613;28;20141;-74
2021/03/20 09:01:07;;;;;;;8.02;4.25;;;;;;;3.85;56.86;103089.09;4999694;28;20133;-74
2021/03/20 09:03:38;;;;;;;7.63;3.65;;;;;;;3.91;56.08;103079.34;4986354;28;20116;-74
2021/03/20 09:06:33;;;;;;;6.47;3.92;;;;;;;4.09;57.30;103090.91;4991639;28;20058;-75
2021/03/20 09:09:12;;;;;;;8.05;4.30;;;;;;;4.20;56.42;103092.34;4993580;28;20046;-74
2021/03/20 09:11:46;;;;;;;5.85;3.92;;;;;;;4.22;55.05;103082.75;5008548;28;20098;-74
2021/03/20 09:14:18;;;;;;;7.30;3.97;;;;;;;4.33;55.52;103088.41;4996022;28;20112;-76
2021/03/20 09:16:48;;;;;;;6.20;4.18;;;;;;;4.45;55.82;103079.38;4996735;28;20158;-75
2021/03/20 09:19:32;;;;;;;8.60;4.07;;;;;;;4.59;54.88;103084.09;4995540;28;20057;-75
2021/03/20 09:22:11;;;;;;;5.78;3.50;;;;;;;4.74;55.24;103087.06;4992800;28;20096;-75
2021/03/20 09:24:50;;;;;;;7.10;3.88;;;;;;;4.89;54.98;103084.81;4998849;28;20098;-75
2021/03/20 09:27:54;;;;;;;9.93;5.47;;;;;;;5.05;55.03;103096.34;4986863;28;20073;-77
2021/03/20 09:30:34;;;;;;;5.88;3.60;;;;;;;5.01;50.82;103086.13;4991757;28;20554;-75
2021/03/20 09:33:04;;;;;;;7.78;3.50;;;;;;;5.18;51.50;103090.72;5004108;28;20543;-75
2021/03/20 09:35:42;;;;;;;7.05;3.65;;;;;;;5.15;49.67;103089.94;4996018;28;20458;-75
2021/03/20 09:38:09;;;;;;;6.32;4.18;;;;;;;5.15;50.31;103079.53;4991681;28;20054;-75
2021/03/20 09:40:46;;;;;;;6.38;3.75;;;;;;;5.30;50.71;103085.06;5000986;28;20073;-75
2021/03/20 09:43:22;;;;;;;9.13;4.17;;;;;;;5.43;51.29;103091.53;4991043;28;20169;-75
2021/03/20 09:46:46;;;;;;;5.53;3.63;;;;;;;5.48;50.41;103088.75;4994039;28;20132;-76
2021/03/20 09:49:13;;;;;;;5.88;3.45;;;;;;;5.55;49.04;103090.22;4992097;28;20043;-75
2021/03/20 09:51:52;;;;;;;6.05;3.50;;;;;;;5.81;50.87;103085.75;5001381;28;20505;-74
2021/03/20 09:54:24;;;;;;;;;;;;;;;5.90;49.64;103082.78;4991767;28;20089;-75
2021/03/20 09:56:54;;;;;;;6.38;3.15;;;;;;;5.89;50.16;103081.09;5014209;28;20329;-76
2021/03/20 09:59:29;;;;;;;6.57;3.80;;;;;;;5.98;47.93;103072.09;4989130;28;20135;-75
2021/03/20 10:01:57;;;;;;;5.63;3.90;;;;;;;6.26;49.21;103067.47;4997291;28;20104;-75
2021/03/20 10:04:38;;;;;;;7.97;3.83;;;;;;;6.52;48.77;103065.53;5000024;28;20046;-75
2021/03/20 10:07:27;;;;;;;7.38;3.83;;;;;;;6.67;47.70;103059.66;4992456;28;20069;-75
2021/03/20 10:10:12;;;;;;;5.82;3.70;;;;;;;6.93;48.85;103063.72;4998393;28;20062;-74
2021/03/20 10:12:45;;;;;;;6.95;3.53;;;;;;;7.03;47.76;103058.94;4990012;28;20057;-74
2021/03/20 10:15:15;;;;;;;5.53;3.53;;;;;;;7.19;46.97;103060.88;4992450;28;20545;-75
2021/03/20 10:17:59;;;;;;;7.60;4.05;;;;;;;7.24;46.26;103064.97;4993967;28;20054;-74
2021/03/20 10:21:05;;;;;;;8.40;4.57;;;;;;;7.33;46.37;103056.72;4995058;28;20482;-74
2021/03/20 10:23:41;;;;;;;7.47;3.65;;;;;;;7.58;46.72;103049.50;4921943;29;20058;-74
2021/03/20 10:26:21;;;;;;;6.15;3.85;;;;;;;7.88;46.37;103049.84;4985196;28;20132;-74
2021/03/20 10:29:00;;;;;;;5.30;3.15;;;;;;;8.04;46.01;103040.31;4984810;28;20054;-74
2021/03/20 10:31:28;;;;;;;9.00;3.92;;;;;;;8.07;44.24;103039.31;4993353;28;20054;-74
2021/03/20 10:34:07;;;;;;;5.47;3.63;;;;;;;7.99;44.88;103039.69;4992083;28;20042;-74
2021/03/20 10:36:47;;;;;;;7.15;4.75;;;;;;;7.73;44.03;103038.34;4996667;28;20187;-75
2021/03/20 10:39:25;;;;;;;8.20;3.83;;;;;;;8.04;45.44;103032.47;4988843;28;20111;-75
2021/03/20 10:41:55;;;;;;;5.45;3.47;;;;;;;8.26;46.18;103018.34;4989200;28;20732;-75
2021/03/20 10:44:27;;;;;;;8.55;4.00;;;;;;;8.50;43.42;103026.72;4988628;28;20058;-75
2021/03/20 10:47:11;;;;;;;6.28;3.47;;;;;;;8.50;43.57;103017.09;4998482;28;20088;-75
2021/03/20 10:49:41;;;;;;;6.63;3.58;;;;;;;8.81;43.96;103022.53;4993894;28;20050;-74
2021/03/20 10:52:20;;;;;;;4.78;3.40;;;;;;;9.15;44.20;103020.72;5028408;28;20057;-74
2021/03/20 10:54:49;;;;;;;;;;;;;;;9.30;44.25;103020.72;4985073;28;20097;-75
2021/03/20 10:57:24;;;;;;;5.70;3.40;;;;;;;9.50;41.36;103018.75;4994658;28;19961;-74
2021/03/20 10:59:51;;;;;;;5.30;3.42;;;;;;;9.34;40.97;103018.78;4990833;28;20051;-75
2021/03/20 11:02:31;;;;;;;5.00;3.50;;;;;;;9.22;41.16;103009.81;4999615;28;20081;-75
2021/03/20 11:05:22;;;;;;;5.22;3.50;;;;;;;9.27;41.21;103013.03;4998345;28;20049;-74
2021/03/20 11:07:56;;;;;;;4.95;3.30;;;;;;;9.22;42.34;103003.75;4989489;28;20120;-76
2021/03/20 11:10:38;;;;;;;4.90;3.53;;;;;;;8.45;42.23;102992.97;4992000;28;20058;-76
2021/03/20 11:13:32;;;;;;;6.70;3.30;;;;;;;8.62;42.06;102999.91;4993229;28;20658;-75
2021/03/20 11:16:12;;;;;;;6.97;3.70;;;;;;;8.57;42.90;102999.34;4996084;28;20054;-76
2021/03/20 11:18:48;;;;;;;5.30;3.67;;;;;;;8.46;42.62;102999.88;4993042;28;20050;-76
2021/03/20 11:21:28;;;;;;;6.30;3.33;;;;;;;8.73;43.15;102986.28;4996545;28;20114;-76
2021/03/20 11:23:59;;;;;;;5.90;3.55;;;;;;;8.95;42.90;102999.06;4983427;28;20686;-76
2021/03/20 11:26:40;;;;;;;6.22;3.80;;;;;;;8.77;43.07;102992.22;4997001;28;20050;-77
2021/03/20 11:29:12;;;;;;;5.28;3.80;;;;;;;8.96;42.65;102992.06;4992279;28;20050;-74
2021/03/20 11:32:01;;;;;;;5.90;3.70;;;;;;;9.22;43.29;102988.03;4992896;28;20062;-75
2021/03/20 11:34:35;;;;;;;5.40;3.63;;;;;;;8.92;42.08;102991.41;4986018;28;20054;-76
2021/03/20 11:37:02;;;;;;;7.80;3.72;;;;;;;8.85;41.37;102977.78;4993220;28;20473;-76
2021/03/20 11:39:29;;;;;;;6.88;4.00;;;;;;;9.25;42.36;102970.38;4986522;28;20078;-75
2021/03/20 11:42:01;;;;;;;4.68;3.50;;;;;;;9.75;42.97;102970.22;4996682;28;20138;-76
2021/03/20 11:44:30;;;;;;;5.30;3.92;;;;;;;10.05;42.34;102970.19;4989499;28;20623;-75
2021/03/20 11:47:02;;;;;;;7.65;4.00;;;;;;;9.66;40.53;102979.44;4995274;28;20062;-75
2021/03/20 11:49:38;;;;;;;6.38;3.47;;;;;;;9.86;41.21;102968.66;5005694;28;20140;-75
2021/03/20 11:52:08;;;;;;;5.18;3.40;;;;;;;9.92;40.58;102972.72;4981164;28;20486;-76
2021/03/20 11:54:39;;;;;;;4.60;3.20;;;;;;;10.17;39.77;102963.38;4996839;28;20056;-73
2021/03/20 11:57:29;;;;;;;5.90;3.60;;;;;;;10.31;39.66;102955.59;4980303;28;20871;-73
2021/03/20 11:59:55;;;;;;;6.75;3.65;;;;;;;10.37;39.48;102956.97;4991787;28;20085;-73
2021/03/20 12:02:24;;;;;;;5.35;3.58;;;;;;;10.63;40.07;102953.63;4989592;28;20140;-75
2021/03/20 12:05:22;;;;;;;5.70;3.47;;;;;;;10.82;40.92;102940.19;4979895;28;20054;-74
2021/03/20 12:07:48;;;;;;;6.10;4.05;;;;;;;10.99;39.28;102952.25;4987520;28;20053;-74
2021/03/20 12:10:20;;;;;;;6.65;3.88;;;;;;;10.92;38.74;102943.09;4986831;28;20552;-74
2021/03/20 12:12:56;;;;;;;8.30;4.00;;;;;;;11.10;38.21;102940.25;4987551;28;20050;-73
2021/03/20 12:15:36;;;;;;;5.38;3.78;;;;;;;10.65;38.30;102950.91;4992802;28;20100;-74